Time;durP1;ratioP1;P1;durP2;ratioP2;P2;SDS_P1;SDS_P2;PMS_P1;PMS_P2;Temp;Humidity;BMP_temperature;BMP_pressure;BME280_temperature;BME280_humidity;BME280_pressure;Samples;Min_cycle;Max_cycle;Signal;HPM_P1;HPM_P2
2022/06/08 00:00:20;;;;;;;5.47;2.97;;;10.30;99.90;;;;;;5107913;28;20503;-67
2022/06/08 00:02:51;;;;;;;7.10;3.70;;;10.20;99.90;;;;;;5105976;28;20052;-68
2022/06/08 00:05:18;;;;;;;4.82;3.33;;;10.10;99.90;;;;;;5107336;28;20066;-67
2022/06/08 00:07:43;;;;;;;6.65;5.00;;;10.10;99.90;;;;;;5108192;28;20070;-67
2022/06/08 00:10:10;;;;;;;5.28;3.72;;;10.20;99.90;;;;;;5108139;28;20044;-67
2022/06/08 00:12:36;;;;;;;5.63;3.90;;;10.20;99.90;;;;;;5105656;28;20047;-67
2022/06/08 00:15:03;;;;;;;7.55;3.90;;;10.20;99.90;;;;;;5104875;28;20074;-67
2022/06/08 00:17:29;;;;;;;5.43;3.65;;;10.30;99.90;;;;;;5107175;28;20077;-67
2022/06/08 00:19:54;;;;;;;4.97;3.88;;;10.50;99.90;;;;;;5108284;28;20078;-67
2022/06/08 00:22:20;;;;;;;4.65;4.00;;;10.20;99.90;;;;;;5107654;28;20521;-67
2022/06/08 00:24:46;;;;;;;4.53;3.80;;;10.30;99.90;;;;;;5111507;28;20115;-67
2022/06/08 00:27:12;;;;;;;3.78;3.03;;;10.30;99.90;;;;;;5108657;28;20100;-67
2022/06/08 00:29:38;;;;;;;4.45;3.50;;;10.40;99.90;;;;;;5104658;28;20048;-67
2022/06/08 00:32:04;;;;;;;6.15;3.10;;;10.20;99.90;;;;;;5108418;28;20065;-67
2022/06/08 00:34:30;;;;;;;6.35;3.58;;;10.10;99.90;;;;;;5107211;28;20549;-67
2022/06/08 00:36:55;;;;;;;3.65;3.25;;;10.20;99.90;;;;;;5102901;28;20099;-67
2022/06/08 00:39:21;;;;;;;5.30;3.70;;;10.30;99.90;;;;;;5110147;28;20556;-67
2022/06/08 00:41:52;;;;;;;4.13;3.28;;;10.20;99.90;;;;;;5104693;28;20055;-67
2022/06/08 00:44:24;;;;;;;5.43;3.75;;;10.20;99.90;;;;;;5105837;28;20044;-67
2022/06/08 00:46:52;;;;;;;4.55;4.07;;;10.20;99.90;;;;;;5126583;27;20052;-67
2022/06/08 00:49:30;;;;;;;8.00;4.78;;;10.00;99.90;;;;;;5107142;28;20052;-67
2022/06/08 00:51:58;;;;;;;6.60;4.40;;;10.00;99.90;;;;;;5106551;28;20585;-67
2022/06/08 00:54:39;;;;;;;8.40;5.35;;;10.00;99.90;;;;;;5103909;28;20048;-67
2022/06/08 00:57:13;;;;;;;8.93;5.18;;;9.90;99.90;;;;;;5106632;28;20043;-67
2022/06/08 00:59:45;;;;;;;7.18;5.50;;;10.00;99.90;;;;;;5106592;28;20048;-67
2022/06/08 01:02:11;;;;;;;8.43;4.90;;;10.00;99.90;;;;;;5089092;28;20047;-67
2022/06/08 01:04:36;;;;;;;6.57;4.88;;;10.10;99.90;;;;;;5103383;28;20051;-67
2022/06/08 01:07:04;;;;;;;6.53;4.78;;;9.90;99.90;;;;;;5103047;28;20040;-67
2022/06/08 01:09:37;;;;;;;5.88;5.15;;;10.00;99.90;;;;;;5100695;28;20175;-67
2022/06/08 01:12:12;;;;;;;5.45;4.35;;;9.90;99.90;;;;;;5107866;28;20070;-67
2022/06/08 01:14:38;;;;;;;6.78;4.60;;;9.90;99.90;;;;;;5107533;28;20036;-67
2022/06/08 01:17:06;;;;;;;4.35;3.95;;;9.80;99.90;;;;;;5110600;28;20051;-67
2022/06/08 01:19:38;;;;;;;6.93;5.00;;;9.80;99.90;;;;;;5105540;28;20044;-67
2022/06/08 01:22:07;;;;;;;9.15;5.18;;;9.70;99.90;;;;;;5102981;28;20052;-67
2022/06/08 01:24:34;;;;;;;6.30;4.47;;;9.80;99.90;;;;;;5106184;28;20078;-67
2022/06/08 01:27:11;;;;;;;7.63;5.15;;;9.80;99.90;;;;;;5101829;28;20099;-67
2022/06/08 01:29:43;;;;;;;5.13;4.50;;;9.80;99.90;;;;;;5088568;28;20044;-67
2022/06/08 01:32:21;;;;;;;6.47;5.30;;;9.80;99.90;;;;;;5108312;28;20079;-67
2022/06/08 01:35:13;;;;;;;6.95;4.93;;;10.00;99.90;;;;;;5103394;28;20096;-67
2022/06/08 01:38:13;;;;;;;6.10;5.05;;;10.00;99.90;;;;;;5071657;28;20055;-67
2022/06/08 01:41:05;;;;;;;5.13;4.40;;;10.10;99.90;;;;;;5103525;28;20055;-67
2022/06/08 01:43:52;;;;;;;6.80;5.20;;;10.10;99.90;;;;;;5105310;28;20534;-67
2022/06/08 01:46:26;;;;;;;7.43;5.22;;;10.00;99.90;;;;;;5087154;28;20099;-67
2022/06/08 01:48:55;;;;;;;6.20;4.60;;;10.10;99.90;;;;;;5100945;28;20051;-67
2022/06/08 01:51:54;;;;;;;6.35;4.40;;;10.10;99.90;;;;;;5113377;28;20086;-67
2022/06/08 01:54:59;;;;;;;9.13;5.90;;;10.20;99.90;;;;;;5106333;28;20055;-67
2022/06/08 01:57:51;;;;;;;10.60;6.53;;;10.20;99.90;;;;;;5106485;28;20055;-67
2022/06/08 02:00:19;;;;;;;11.73;8.05;;;10.40;99.90;;;;;;5107352;28;20070;-67
2022/06/08 02:03:16;;;;;;;11.10;7.72;;;10.40;99.90;;;;;;5106184;28;20050;-67
2022/06/08 02:05:42;;;;;;;8.52;6.68;;;10.60;99.90;;;;;;5106328;28;20115;-67
2022/06/08 02:08:25;;;;;;;7.80;5.35;;;10.60;99.90;;;;;;5104085;28;20047;-67
2022/06/08 02:11:09;;;;;;;9.00;6.00;;;10.60;99.90;;;;;;5107112;28;20872;-67
2022/06/08 02:13:44;;;;;;;7.55;5.60;;;10.60;99.90;;;;;;5105475;28;20052;-67
2022/06/08 02:16:29;;;;;;;7.18;4.88;;;10.50;99.90;;;;;;5103693;28;20047;-67
2022/06/08 02:18:59;;;;;;;9.40;5.60;;;10.40;99.90;;;;;;5104123;28;20044;-67
2022/06/08 02:21:35;;;;;;;7.10;5.40;;;10.30;99.90;;;;;;5105011;28;20139;-67
2022/06/08 02:24:08;;;;;;;6.40;5.32;;;10.60;99.90;;;;;;5104547;28;20047;-67
2022/06/08 02:26:43;;;;;;;7.47;6.38;;;10.40;99.90;;;;;;5107008;28;20051;-67
2022/06/08 02:29:17;;;;;;;9.90;5.93;;;10.30;99.90;;;;;;5105450;28;20040;-68
2022/06/08 02:31:51;;;;;;;8.63;5.65;;;10.50;99.90;;;;;;5102340;28;20130;-67
2022/06/08 02:34:34;;;;;;;9.45;6.25;;;10.50;99.90;;;;;;5111178;28;20051;-67
2022/06/08 02:37:23;;;;;;;9.93;6.15;;;10.50;99.90;;;;;;5106282;28;20028;-67
2022/06/08 02:39:51;;;;;;;10.95;7.07;;;10.60;99.90;;;;;;5103481;28;20695;-67
2022/06/08 02:42:30;;;;;;;7.80;5.93;;;10.60;99.90;;;;;;5104742;28;20097;-67
2022/06/08 02:45:07;;;;;;;9.40;6.53;;;10.70;99.90;;;;;;5086443;28;20050;-67
2022/06/08 02:47:36;;;;;;;6.45;5.22;;;10.70;99.90;;;;;;5087630;28;20100;-67
2022/06/08 02:50:03;;;;;;;8.52;6.30;;;10.90;99.90;;;;;;5079729;28;20381;-67
2022/06/08 02:52:30;;;;;;;8.52;5.38;;;10.80;99.90;;;;;;5105580;28;20448;-67
2022/06/08 02:54:56;;;;;;;7.75;5.28;;;10.80;99.90;;;;;;5107156;28;20040;-67
2022/06/08 02:57:45;;;;;;;7.70;5.60;;;10.80;99.90;;;;;;5087953;28;20442;-67
2022/06/08 03:00:16;;;;;;;6.78;5.50;;;10.80;99.90;;;;;;5102686;28;20043;-67
2022/06/08 03:02:46;;;;;;;7.97;6.00;;;10.80;99.90;;;;;;5104618;28;20129;-67
2022/06/08 03:05:30;;;;;;;10.90;7.38;;;10.80;99.90;;;;;;5103530;28;20032;-67
2022/06/08 03:08:00;;;;;;;10.45;7.63;;;10.90;99.90;;;;;;5098623;28;20123;-67
2022/06/08 03:10:31;;;;;;;10.70;8.43;;;11.10;99.90;;;;;;5100935;28;20071;-67
2022/06/08 03:13:11;;;;;;;10.35;7.18;;;11.00;99.90;;;;;;5103022;28;20545;-67
2022/06/08 03:15:39;;;;;;;12.23;8.60;;;11.10;99.90;;;;;;5095287;28;20048;-67
2022/06/08 03:18:05;;;;;;;15.93;10.07;;;10.90;99.90;;;;;;5103074;28;20044;-67
2022/06/08 03:20:31;;;;;;;12.35;9.55;;;11.00;99.90;;;;;;5105326;28;20115;-67
2022/06/08 03:22:57;;;;;;;14.10;10.98;;;11.10;99.90;;;;;;5103548;28;20055;-67
2022/06/08 03:25:23;;;;;;;13.68;9.68;;;11.00;99.90;;;;;;5099311;28;20070;-67
2022/06/08 03:27:49;;;;;;;15.55;10.32;;;11.20;99.90;;;;;;5104966;28;20063;-67
2022/06/08 03:30:16;;;;;;;11.68;8.90;;;11.10;99.90;;;;;;5101887;28;20052;-67
2022/06/08 03:32:42;;;;;;;13.45;9.35;;;11.20;99.90;;;;;;5101408;28;20048;-67
2022/06/08 03:35:08;;;;;;;16.88;11.05;;;11.10;99.90;;;;;;5104368;28;20503;-69
2022/06/08 03:37:34;;;;;;;12.43;9.98;;;11.10;99.90;;;;;;5105903;28;20047;-67
2022/06/08 03:40:00;;;;;;;13.93;10.65;;;11.20;99.90;;;;;;5087805;28;20123;-67
2022/06/08 03:42:26;;;;;;;10.05;7.50;;;11.30;99.90;;;;;;5100364;28;20142;-67
2022/06/08 03:44:52;;;;;;;9.90;7.20;;;11.30;99.90;;;;;;5104561;28;20076;-67
2022/06/08 03:47:26;;;;;;;10.85;7.45;;;11.30;99.90;;;;;;5106412;28;20572;-67
2022/06/08 03:49:54;;;;;;;13.10;9.77;;;11.30;99.90;;;;;;5103412;28;20112;-67
2022/06/08 03:52:24;;;;;;;13.80;9.90;;;11.40;99.90;;;;;;5085142;28;20036;-67
2022/06/08 03:54:54;;;;;;;15.68;11.05;;;11.40;99.90;;;;;;5086795;28;20048;-67
2022/06/08 03:57:21;;;;;;;15.23;11.50;;;11.50;99.90;;;;;;5105116;28;20139;-67
2022/06/08 03:59:49;;;;;;;15.43;10.18;;;11.40;99.90;;;;;;5104036;28;20068;-67
2022/06/08 04:02:15;;;;;;;21.95;13.10;;;11.50;99.90;;;;;;5103553;28;20051;-67
2022/06/08 04:04:42;;;;;;;18.80;13.88;;;11.50;99.90;;;;;;5103052;28;20492;-67
2022/06/08 04:07:08;;;;;;;23.27;14.18;;;11.60;99.90;;;;;;5106155;28;20040;-67
2022/06/08 04:09:34;;;;;;;20.63;13.63;;;11.40;99.90;;;;;;5096881;28;20048;-67
2022/06/08 04:12:01;;;;;;;21.95;15.13;;;11.70;99.90;;;;;;5104900;28;20087;-67
2022/06/08 04:14:26;;;;;;;24.05;16.00;;;11.60;99.90;;;;;;5085462;28;20051;-67
2022/06/08 04:16:52;;;;;;;22.08;14.77;;;11.70;99.90;;;;;;5100425;28;20076;-67
2022/06/08 04:19:19;;;;;;;20.75;15.52;;;11.70;99.90;;;;;;5103550;28;20040;-67
2022/06/08 04:21:45;;;;;;;19.98;15.88;;;11.80;99.90;;;;;;5105048;28;20097;-67
2022/06/08 04:24:14;;;;;;;23.08;14.95;;;12.00;99.90;;;;;;5103493;28;20058;-67
2022/06/08 04:26:40;;;;;;;21.05;16.27;;;12.00;99.90;;;;;;5103836;28;20044;-67
2022/06/08 04:29:07;;;;;;;22.38;16.25;;;12.10;99.90;;;;;;5109747;28;20044;-67
2022/06/08 04:31:34;;;;;;;17.15;14.23;;;12.10;99.90;;;;;;5111943;28;20060;-67
2022/06/08 04:34:02;;;;;;;23.25;16.80;;;12.20;99.90;;;;;;5107670;28;20052;-67
2022/06/08 04:36:28;;;;;;;23.30;16.70;;;12.40;99.90;;;;;;5098223;28;20074;-68
2022/06/08 04:38:54;;;;;;;23.67;16.77;;;12.30;99.90;;;;;;5099136;28;20044;-67
2022/06/08 04:41:20;;;;;;;21.73;15.55;;;12.30;99.90;;;;;;5102637;28;20044;-67
2022/06/08 04:43:46;;;;;;;24.33;16.27;;;12.40;99.90;;;;;;5099734;28;20114;-67
2022/06/08 04:46:15;;;;;;;22.77;15.80;;;12.60;99.90;;;;;;5103450;28;20054;-67
2022/06/08 04:48:42;;;;;;;23.05;15.68;;;12.50;99.90;;;;;;5106531;28;20048;-67
2022/06/08 04:51:10;;;;;;;22.13;16.08;;;12.60;99.90;;;;;;5104697;28;20071;-67
2022/06/08 04:53:40;;;;;;;20.70;15.95;;;12.60;99.90;;;;;;5104916;28;20039;-67
2022/06/08 04:56:06;;;;;;;20.60;14.40;;;12.70;99.90;;;;;;5088964;28;20056;-67
2022/06/08 04:58:33;;;;;;;18.52;14.15;;;12.70;99.90;;;;;;5103909;28;20044;-67
2022/06/08 05:00:59;;;;;;;22.92;16.23;;;12.90;99.90;;;;;;5091067;28;20055;-67
2022/06/08 05:03:25;;;;;;;26.20;15.60;;;12.90;99.90;;;;;;5088222;28;20425;-67
2022/06/08 05:05:51;;;;;;;21.00;16.00;;;12.80;99.90;;;;;;5101321;28;20108;-67
2022/06/08 05:08:18;;;;;;;23.27;16.98;;;12.90;99.90;;;;;;5106184;28;20048;-67
2022/06/08 05:10:45;;;;;;;25.00;15.93;;;12.90;99.90;;;;;;5101992;28;20065;-67
2022/06/08 05:13:12;;;;;;;22.85;14.88;;;12.90;99.90;;;;;;5088377;28;20059;-67
2022/06/08 05:15:40;;;;;;;20.73;14.95;;;13.00;99.90;;;;;;5054441;28;20036;-68
2022/06/08 05:18:08;;;;;;;22.45;16.88;;;13.10;99.90;;;;;;5105986;28;20445;-68
2022/06/08 05:20:35;;;;;;;25.48;16.90;;;13.00;99.90;;;;;;5106382;28;20451;-66
2022/06/08 05:23:01;;;;;;;22.85;17.52;;;13.00;99.90;;;;;;5103797;28;20056;-67
2022/06/08 05:25:34;;;;;;;24.58;16.98;;;13.10;99.90;;;;;;5098459;28;20055;-66
2022/06/08 05:28:00;;;;;;;26.08;18.35;;;13.20;99.90;;;;;;5098094;28;20053;-67
2022/06/08 05:30:27;;;;;;;25.63;18.23;;;13.20;99.90;;;;;;5096444;28;20052;-67
2022/06/08 05:32:53;;;;;;;29.17;19.27;;;13.40;99.90;;;;;;5097792;28;20059;-66
2022/06/08 05:35:21;;;;;;;27.55;19.95;;;13.40;99.90;;;;;;5098727;28;20094;-66
2022/06/08 05:37:47;;;;;;;27.73;19.02;;;13.20;99.90;;;;;;5092357;28;20382;-66
2022/06/08 05:40:14;;;;;;;23.52;16.60;;;13.40;99.90;;;;;;5073140;28;20067;-67
2022/06/08 05:42:40;;;;;;;25.90;17.77;;;13.40;99.90;;;;;;5094371;28;20036;-70
2022/06/08 05:45:07;;;;;;;22.95;16.38;;;13.60;99.90;;;;;;5119350;28;20037;-69
2022/06/08 05:47:33;;;;;;;26.23;18.75;;;13.60;99.90;;;;;;5102332;28;20044;-67
2022/06/08 05:49:59;;;;;;;21.33;16.05;;;13.70;99.90;;;;;;5104264;28;20044;-67
2022/06/08 05:52:26;;;;;;;23.95;16.05;;;13.80;99.90;;;;;;5104424;28;20043;-67
2022/06/08 05:54:52;;;;;;;23.85;16.90;;;13.80;99.90;;;;;;5105195;28;20103;-67
2022/06/08 05:57:18;;;;;;;23.27;18.90;;;14.00;99.90;;;;;;5105066;28;20040;-69
2022/06/08 05:59:44;;;;;;;24.95;17.85;;;14.00;99.90;;;;;;5065301;28;20079;-67
2022/06/08 06:02:14;;;;;;;23.05;16.85;;;14.00;99.90;;;;;;5105106;28;20066;-67
2022/06/08 06:04:41;;;;;;;24.98;17.48;;;14.00;99.90;;;;;;5103541;28;20044;-67
2022/06/08 06:07:08;;;;;;;24.63;18.55;;;14.10;99.90;;;;;;5103169;28;20083;-67
2022/06/08 06:09:34;;;;;;;27.13;17.60;;;14.20;99.90;;;;;;5101731;28;20076;-67
2022/06/08 06:11:59;;;;;;;22.02;16.48;;;14.20;99.90;;;;;;5104210;28;20063;-67
2022/06/08 06:14:25;;;;;;;20.63;15.70;;;14.30;99.90;;;;;;5103262;28;20048;-67
2022/06/08 06:16:51;;;;;;;23.02;16.85;;;14.20;99.90;;;;;;5104818;28;20737;-67
2022/06/08 06:19:16;;;;;;;20.38;16.00;;;14.30;99.90;;;;;;5101605;28;20032;-68
2022/06/08 06:21:42;;;;;;;22.92;16.02;;;14.60;99.90;;;;;;5084436;28;20040;-67
2022/06/08 06:24:08;;;;;;;22.25;16.75;;;14.60;99.90;;;;;;5075422;28;20679;-67
2022/06/08 06:26:33;;;;;;;19.92;14.57;;;14.60;99.90;;;;;;5072874;28;20130;-67
2022/06/08 06:28:59;;;;;;;19.95;15.93;;;14.60;99.90;;;;;;5086101;28;20123;-67
2022/06/08 06:31:46;;;;;;;21.50;15.90;;;14.70;99.90;;;;;;5082667;28;20055;-67
2022/06/08 06:34:15;;;;;;;21.20;15.52;;;14.90;99.90;;;;;;5088687;28;20096;-67
2022/06/08 06:36:41;;;;;;;16.67;13.65;;;14.90;99.90;;;;;;5097193;28;20048;-67
2022/06/08 06:39:06;;;;;;;17.35;14.10;;;14.90;99.90;;;;;;5090254;28;20120;-67
2022/06/08 06:41:33;;;;;;;20.35;14.27;;;15.00;99.90;;;;;;5097428;28;20079;-68
2022/06/08 06:43:59;;;;;;;18.85;14.77;;;15.00;99.90;;;;;;5091274;28;20047;-67
2022/06/08 06:46:25;;;;;;;20.35;14.88;;;15.10;99.90;;;;;;5074253;28;20049;-68
2022/06/08 06:48:51;;;;;;;18.30;13.55;;;15.10;99.90;;;;;;5081777;28;20047;-67
2022/06/08 06:51:17;;;;;;;20.15;13.52;;;15.10;99.90;;;;;;5087061;28;20044;-67
2022/06/08 06:53:43;;;;;;;19.15;14.48;;;15.20;99.90;;;;;;5090214;28;20610;-67
2022/06/08 06:56:09;;;;;;;19.60;15.55;;;15.20;99.90;;;;;;5079800;28;20103;-67
2022/06/08 06:58:36;;;;;;;23.42;15.80;;;15.40;99.90;;;;;;5090368;28;20323;-67
2022/06/08 07:01:03;;;;;;;19.52;15.90;;;15.30;99.90;;;;;;5072865;28;20085;-67
2022/06/08 07:03:30;;;;;;;18.00;15.68;;;15.40;99.90;;;;;;5077062;28;20052;-68
2022/06/08 07:05:56;;;;;;;20.52;14.68;;;15.50;99.90;;;;;;5089730;28;20056;-67
2022/06/08 07:08:22;;;;;;;18.92;15.48;;;15.50;99.90;;;;;;5081584;28;20040;-66
2022/06/08 07:13:32;;;;;;;18.55;15.77;;;15.60;99.90;;;;;;5091419;28;20055;-68
2022/06/08 07:15:58;;;;;;;19.40;15.35;;;15.80;99.90;;;;;;5073657;28;20124;-67
2022/06/08 07:18:24;;;;;;;21.27;15.20;;;15.90;99.90;;;;;;5093755;28;20048;-67
2022/06/08 07:20:49;;;;;;;16.67;13.80;;;16.00;99.90;;;;;;5087585;28;20047;-67
2022/06/08 07:23:15;;;;;;;19.75;14.27;;;16.00;99.90;;;;;;5096588;28;20064;-67
2022/06/08 07:25:41;;;;;;;16.83;13.02;;;16.20;99.90;;;;;;5098116;28;20043;-67
2022/06/08 07:28:06;;;;;;;19.73;14.02;;;16.30;99.90;;;;;;5096377;28;20040;-67
2022/06/08 07:30:32;;;;;;;16.77;13.30;;;16.40;99.90;;;;;;5086068;28;20060;-67
2022/06/08 07:32:58;;;;;;;17.17;13.20;;;16.60;99.90;;;;;;5096658;28;20051;-67
2022/06/08 07:35:24;;;;;;;15.93;12.02;;;16.60;99.90;;;;;;5069996;28;20063;-67
2022/06/08 07:37:50;;;;;;;15.98;12.93;;;16.70;99.90;;;;;;5092860;28;20048;-67
2022/06/08 07:40:16;;;;;;;15.50;11.35;;;16.90;99.90;;;;;;5087254;28;20119;-67
2022/06/08 07:42:42;;;;;;;13.82;10.55;;;16.90;99.90;;;;;;5076178;28;20543;-67
2022/06/08 07:45:09;;;;;;;15.60;10.80;;;16.90;99.90;;;;;;5066963;28;20052;-67
2022/06/08 07:49:36;;;;;;;11.02;8.85;;;17.10;99.90;;;;;;5081213;28;20044;-67
2022/06/08 07:50:22;;;;;;;13.18;10.45;;;17.20;99.90;;;;;;5089634;28;20151;-67
2022/06/08 07:52:48;;;;;;;10.27;8.48;;;17.20;99.90;;;;;;5095667;28;20207;-67
2022/06/08 07:55:13;;;;;;;10.77;8.13;;;17.20;99.90;;;;;;5087355;28;20082;-67
2022/06/08 07:57:39;;;;;;;10.60;7.38;;;17.40;99.90;;;;;;5073441;28;20055;-68
2022/06/08 08:00:06;;;;;;;10.20;7.63;;;17.30;99.90;;;;;;5065060;28;20119;-67
2022/06/08 08:02:32;;;;;;;8.13;7.15;;;17.40;99.90;;;;;;5096343;28;20108;-67
2022/06/08 08:04:58;;;;;;;9.98;7.28;;;17.40;99.90;;;;;;5085406;28;20170;-67
2022/06/08 08:07:23;;;;;;;9.02;7.72;;;17.50;99.90;;;;;;5094942;28;20052;-67
2022/06/08 08:09:49;;;;;;;8.55;7.00;;;17.50;99.90;;;;;;5086172;28;20047;-67
2022/06/08 08:12:16;;;;;;;9.55;6.63;;;17.50;99.90;;;;;;5094522;28;20048;-68
2022/06/08 08:14:42;;;;;;;8.02;6.95;;;17.60;99.90;;;;;;5086695;28;20581;-67
2022/06/08 08:17:08;;;;;;;9.20;7.05;;;17.80;99.90;;;;;;5073886;28;20044;-69
2022/06/08 08:19:38;;;;;;;8.60;7.20;;;17.80;99.90;;;;;;5091337;28;20043;-67
2022/06/08 08:22:04;;;;;;;8.38;7.43;;;18.00;99.90;;;;;;5097725;28;20097;-67
2022/06/08 08:24:31;;;;;;;8.90;7.57;;;18.00;99.90;;;;;;5092304;28;20055;-67
2022/06/08 08:26:57;;;;;;;5.68;4.70;;;18.00;99.90;;;;;;5090957;28;20103;-67
2022/06/08 08:29:23;;;;;;;6.60;5.28;;;18.10;99.90;;;;;;5074544;28;20056;-68
2022/06/08 08:31:49;;;;;;;6.85;5.30;;;18.10;99.90;;;;;;5097833;28;20435;-68
2022/06/08 08:34:16;;;;;;;6.40;5.35;;;18.10;99.90;;;;;;5074571;28;20146;-68
2022/06/08 08:36:42;;;;;;;6.93;6.05;;;18.00;99.90;;;;;;5097734;28;20126;-67
2022/06/08 08:39:08;;;;;;;5.78;4.43;;;18.00;99.90;;;;;;5088830;28;20118;-67
2022/06/08 08:44:39;;;;;;;5.57;4.50;;;18.20;99.90;;;;;;5092818;28;20635;-67
2022/06/08 08:47:26;;;;;;;7.10;5.72;;;18.20;99.90;;;;;;5099422;28;20070;-67
2022/06/08 08:50:00;;;;;;;7.07;5.10;;;18.50;99.90;;;;;;5100520;28;20060;-67
2022/06/08 08:52:28;;;;;;;5.75;4.45;;;18.50;99.90;;;;;;5081463;28;20055;-67
2022/06/08 08:55:00;;;;;;;5.80;4.82;;;18.50;99.90;;;;;;5093948;28;20405;-67
2022/06/08 08:58:11;;;;;;;6.05;4.53;;;18.50;99.90;;;;;;5074523;28;20040;-67
2022/06/08 09:00:41;;;;;;;6.68;5.05;;;18.60;99.90;;;;;;4941615;28;20051;-67
2022/06/08 09:03:40;;;;;;;8.32;6.30;;;18.60;99.90;;;;;;4961624;28;20038;-67
2022/06/08 09:06:15;;;;;;;9.30;6.05;;;18.50;99.90;;;;;;4958737;28;20046;-67
2022/06/08 09:08:45;;;;;;;8.10;5.80;;;18.60;99.90;;;;;;4963670;28;20102;-67
2022/06/08 09:11:24;;;;;;;7.28;5.40;;;18.70;99.90;;;;;;4955007;28;20142;-67
2022/06/08 09:14:00;;;;;;;6.43;5.70;;;18.80;99.90;;;;;;4963821;28;20102;-67
2022/06/08 09:16:45;;;;;;;7.88;6.28;;;18.90;99.90;;;;;;4951803;28;20106;-67
2022/06/08 09:19:29;;;;;;;7.93;5.40;;;19.00;99.90;;;;;;4953069;28;20589;-67
2022/06/08 09:22:16;;;;;;;8.07;5.30;;;19.20;99.90;;;;;;4996139;28;20056;-67
2022/06/08 09:24:48;;;;;;;7.85;5.72;;;19.40;99.90;;;;;;4982539;28;20254;-67
2022/06/08 09:27:22;;;;;;;7.35;5.50;;;19.30;99.90;;;;;;4962588;28;20193;-67
2022/06/08 09:29:54;;;;;;;7.10;5.90;;;19.40;99.90;;;;;;4950956;28;20069;-67
2022/06/08 09:32:30;;;;;;;6.22;5.20;;;19.50;99.90;;;;;;5056620;28;20168;-67
2022/06/08 09:34:59;;;;;;;4.90;4.40;;;19.40;99.90;;;;;;5069159;28;20048;-67
2022/06/08 09:37:26;;;;;;;7.70;4.25;;;19.40;99.90;;;;;;5078065;28;20041;-67
2022/06/08 09:39:55;;;;;;;6.60;4.22;;;19.30;99.90;;;;;;5063067;28;20087;-68
2022/06/08 09:42:35;;;;;;;5.85;4.70;;;19.30;99.90;;;;;;5070893;28;20036;-67
2022/06/08 09:45:05;;;;;;;7.28;4.35;;;19.40;99.90;;;;;;5056476;28;20052;-67
2022/06/08 09:53:53;;;;;;;7.15;4.22;;;19.40;99.90;;;;;;5068801;28;20067;-67
2022/06/08 09:56:24;;;;;;;7.00;4.57;;;19.30;99.90;;;;;;5057799;28;20051;-67
2022/06/08 09:59:27;;;;;;;5.90;4.40;;;19.40;99.90;;;;;;5077445;28;20101;-67
2022/06/08 10:01:59;;;;;;;4.25;2.95;;;19.30;99.90;;;;;;5061449;28;20044;-68
2022/06/08 10:04:52;;;;;;;5.63;3.42;;;19.30;99.90;;;;;;5070738;28;20408;-68
2022/06/08 10:07:37;;;;;;;4.93;3.78;;;19.30;99.90;;;;;;5073309;28;20041;-68
2022/06/08 10:10:17;;;;;;;5.15;3.33;;;19.30;99.90;;;;;;5067157;28;20052;-68
2022/06/08 10:12:59;;;;;;;5.32;3.63;;;19.30;99.90;;;;;;5075426;28;20087;-67
2022/06/08 10:15:47;;;;;;;5.15;3.15;;;19.40;99.90;;;;;;5069258;28;20129;-67
2022/06/08 10:18:19;;;;;;;4.38;3.42;;;19.70;99.90;;;;;;5060735;28;20048;-67
2022/06/08 10:20:51;;;;;;;4.55;3.50;;;19.80;99.90;;;;;;5082649;28;20071;-67
2022/06/08 10:23:26;;;;;;;3.92;3.50;;;20.00;99.90;;;;;;5093456;28;20048;-67
2022/06/08 10:26:08;;;;;;;4.72;3.50;;;20.10;99.90;;;;;;5077877;28;20050;-67
2022/06/08 10:28:48;;;;;;;7.57;4.30;;;20.30;99.90;;;;;;5065682;28;20055;-68
2022/06/08 10:31:35;;;;;;;5.65;4.05;;;20.50;99.90;;;;;;5085046;28;20134;-67
2022/06/08 10:34:16;;;;;;;5.32;3.70;;;20.60;99.90;;;;;;5097266;28;20044;-68
2022/06/08 10:36:44;;;;;;;4.60;3.53;;;20.80;99.90;;;;;;5083093;28;20044;-67
2022/06/08 10:39:13;;;;;;;5.82;3.70;;;20.80;99.90;;;;;;5096738;28;20040;-68
2022/06/08 10:44:52;;;;;;;6.95;3.97;;;20.90;99.90;;;;;;5083251;28;20052;-69
2022/06/08 10:47:34;;;;;;;7.35;4.10;;;20.90;99.90;;;;;;5108869;28;20073;-68
2022/06/08 10:50:00;;;;;;;5.05;3.33;;;20.90;99.90;;;;;;5073976;28;20115;-67
2022/06/08 10:52:48;;;;;;;4.70;3.42;;;21.00;99.90;;;;;;5088110;28;20101;-69
2022/06/08 10:55:13;;;;;;;6.43;4.03;;;21.00;99.90;;;;;;5090370;28;20047;-69
2022/06/08 10:57:44;;;;;;;5.53;3.97;;;21.00;99.90;;;;;;5078435;28;20046;-69
2022/06/08 11:00:18;;;;;;;5.60;3.60;;;20.90;99.90;;;;;;5079133;28;20051;-69
2022/06/08 11:02:51;;;;;;;8.23;3.80;;;21.00;99.90;;;;;;5097913;28;20152;-69
2022/06/08 11:05:28;;;;;;;7.60;4.22;;;21.00;99.90;;;;;;5091008;28;20082;-75
2022/06/08 11:08:21;;;;;;;6.65;4.10;;;21.10;99.90;;;;;;5083302;28;20036;-67
2022/06/08 11:10:53;;;;;;;6.13;3.63;;;21.10;99.90;;;;;;5068947;28;20040;-69
2022/06/08 11:13:22;;;;;;;6.80;4.05;;;21.10;99.90;;;;;;5077523;28;20052;-69
2022/06/08 11:15:53;;;;;;;7.27;3.50;;;21.20;99.90;;;;;;5089103;28;20063;-69
2022/06/08 11:18:49;;;;;;;5.53;3.70;;;21.40;99.90;;;;;;5080492;28;20051;-69
2022/06/08 11:21:14;;;;;;;8.20;4.13;;;21.40;99.90;;;;;;5088862;28;20052;-69
2022/06/08 11:23:45;;;;;;;5.07;4.32;;;21.60;99.90;;;;;;5096959;28;20058;-69
2022/06/08 11:26:20;;;;;;;7.63;4.80;;;21.70;99.90;;;;;;5083885;28;20086;-69
2022/06/08 11:28:50;;;;;;;6.22;4.85;;;21.90;99.90;;;;;;5095505;28;20040;-69
2022/06/08 11:31:28;;;;;;;5.35;4.38;;;21.90;99.90;;;;;;5085191;28;20059;-69
2022/06/08 11:34:12;;;;;;;5.45;4.75;;;21.90;99.90;;;;;;5079350;28;20047;-69
2022/06/08 11:37:09;;;;;;;5.80;4.65;;;21.90;99.90;;;;;;5087982;28;20070;-69
2022/06/08 11:39:52;;;;;;;6.97;5.50;;;21.90;99.90;;;;;;5087784;28;20044;-70
2022/06/08 11:42:27;;;;;;;7.72;6.05;;;22.00;99.90;;;;;;5079440;28;20484;-70
2022/06/08 11:44:54;;;;;;;5.75;5.20;;;22.10;99.90;;;;;;5078524;28;20055;-69
2022/06/08 11:48:00;;;;;;;6.63;5.18;;;22.20;99.90;;;;;;5092876;28;20036;-70
2022/06/08 11:50:41;;;;;;;5.05;4.38;;;22.00;99.90;;;;;;5042115;28;20049;-68
2022/06/08 11:53:18;;;;;;;4.82;4.38;;;21.90;99.90;;;;;;5038003;28;20060;-74
2022/06/08 11:56:13;;;;;;;5.00;4.43;;;21.80;99.90;;;;;;5019794;28;20041;-77
2022/06/08 11:58:45;;;;;;;6.63;4.25;;;21.60;99.90;;;;;;5029839;28;20049;-70
2022/06/08 12:01:17;;;;;;;5.80;4.07;;;21.60;99.90;;;;;;5017047;28;20064;-70
2022/06/08 12:03:46;;;;;;;6.25;4.78;;;21.40;99.90;;;;;;5038406;28;20041;-70
2022/06/08 12:06:24;;;;;;;5.05;4.00;;;21.30;99.90;;;;;;5045924;28;20238;-70
2022/06/08 12:09:05;;;;;;;5.80;3.95;;;21.30;99.90;;;;;;5036844;28;20101;-70
2022/06/08 12:11:33;;;;;;;5.93;4.13;;;21.10;99.90;;;;;;5043450;28;20146;-70
2022/06/08 12:14:24;;;;;;;5.82;4.07;;;21.10;99.90;;;;;;5057065;28;20926;-70
2022/06/08 12:17:08;;;;;;;5.10;4.03;;;20.90;99.90;;;;;;5060119;28;20060;-70
2022/06/08 12:19:48;;;;;;;4.90;3.60;;;20.80;99.90;;;;;;5073209;28;20040;-70
2022/06/08 12:22:29;;;;;;;5.80;4.68;;;20.70;99.90;;;;;;5031997;28;20602;-71
2022/06/08 12:25:13;;;;;;;5.85;5.20;;;20.60;99.90;;;;;;5074824;28;20118;-69
2022/06/08 12:28:05;;;;;;;10.05;7.28;;;20.30;99.90;;;;;;5093348;28;20051;-71
2022/06/08 12:30:52;;;;;;;6.00;4.15;;;20.10;99.90;;;;;;5096843;28;20054;-70
2022/06/08 12:33:17;;;;;;;13.00;3.50;;;19.40;99.90;;;;;;5088119;28;20047;-70
2022/06/08 12:36:18;;;;;;;29.80;4.22;;;18.90;99.90;;;;;;5090461;28;20051;-70
2022/06/08 12:39:15;;;;;;;8.23;2.75;;;17.60;99.90;;;;;;5092276;28;20036;-70
2022/06/08 12:41:50;;;;;;;5.90;2.30;;;16.60;99.90;;;;;;5020969;28;20049;-70
2022/06/08 12:44:50;;;;;;;9.13;3.00;;;16.10;99.90;;;;;;5033436;28;20056;-69
2022/06/08 12:47:18;;;;;;;7.88;2.95;;;15.90;99.90;;;;;;4990082;28;20119;-70
2022/06/08 12:49:59;;;;;;;7.97;3.40;;;15.90;99.90;;;;;;4994127;28;20053;-71
2022/06/08 12:52:32;;;;;;;9.52;3.75;;;15.90;99.90;;;;;;5014421;28;20061;-71
2022/06/08 12:54:59;;;;;;;7.35;3.55;;;15.90;99.90;;;;;;4992750;28;20076;-70
2022/06/08 12:57:28;;;;;;;10.02;3.60;;;16.00;99.90;;;;;;5008208;28;20045;-71
2022/06/08 12:59:59;;;;;;;8.52;3.92;;;16.20;99.90;;;;;;4979287;28;20060;-71
2022/06/08 13:02:35;;;;;;;10.25;3.88;;;16.10;99.90;;;;;;4999114;28;20106;-71
2022/06/08 13:05:07;;;;;;;6.57;3.75;;;16.10;99.90;;;;;;5004014;28;20186;-70
2022/06/08 13:07:34;;;;;;;6.40;4.20;;;16.10;99.90;;;;;;4999864;28;20053;-69
2022/06/08 13:10:00;;;;;;;12.43;4.93;;;16.00;99.90;;;;;;5011185;28;20046;-71
2022/06/08 13:12:31;;;;;;;6.13;4.38;;;16.00;99.90;;;;;;5035598;28;20089;-71
2022/06/08 13:14:57;;;;;;;8.00;4.20;;;16.10;99.90;;;;;;5028700;28;20045;-71
2022/06/08 13:17:25;;;;;;;9.35;5.00;;;16.20;99.90;;;;;;5035880;28;20060;-71
2022/06/08 13:19:51;;;;;;;10.20;4.75;;;16.20;99.90;;;;;;5078638;28;20052;-70